createdAt,value
2022-08-12T00:02:02.906Z,99486.13
2022-08-12T00:04:49.933Z,99486.22
2022-08-12T00:07:36.216Z,99490.91
2022-08-12T00:10:22.172Z,99484.59
2022-08-12T00:13:07.520Z,99478.44
2022-08-12T00:15:54.487Z,99480.91
2022-08-12T00:18:40.002Z,99479.41
2022-08-12T00:21:25.390Z,99473.91
2022-08-12T00:24:12.871Z,99475.41
2022-08-12T00:27:00.248Z,99481.66
2022-08-12T00:29:48.147Z,99482.34
2022-08-12T00:32:35.956Z,99489.03
2022-08-12T00:35:27.401Z,99487.00
2022-08-12T00:38:22.848Z,99490.06
2022-08-12T00:41:08.356Z,99481.63
2022-08-12T00:43:36.258Z,99479.56
2022-08-12T00:46:22.463Z,99483.81
2022-08-12T00:48:50.411Z,99487.22
2022-08-12T00:51:17.324Z,99482.41
2022-08-12T00:53:44.139Z,99488.53
2022-08-12T00:56:10.950Z,99488.03
2022-08-12T00:58:45.962Z,99487.59
2022-08-12T01:01:16.561Z,99489.47
2022-08-12T01:04:07.255Z,99490.44
2022-08-12T01:06:53.787Z,99485.69
2022-08-12T01:09:41.225Z,99482.88
2022-08-12T01:12:11.743Z,99478.41
2022-08-12T01:14:40.874Z,99476.84
2022-08-12T01:17:08.079Z,99468.88
2022-08-12T01:19:34.719Z,99471.16
2022-08-12T01:22:23.528Z,99468.34
2022-08-12T01:25:18.557Z,99475.63
2022-08-12T01:27:46.786Z,99470.88
2022-08-12T01:30:14.447Z,99481.41
2022-08-12T01:32:42.149Z,99475.06
2022-08-12T01:35:14.747Z,99481.16
2022-08-12T01:38:01.116Z,99480.72
2022-08-12T01:40:36.098Z,99479.84
2022-08-12T01:43:10.454Z,99482.94
2022-08-12T01:45:46.340Z,99481.34
2022-08-12T01:48:29.647Z,99480.03
2022-08-12T01:52:21.312Z,99482.59
2022-08-12T01:54:22.747Z,99473.47
2022-08-12T01:57:11.070Z,99481.97
2022-08-12T01:59:59.259Z,99481.53
2022-08-12T02:02:35.056Z,99488.19
2022-08-12T02:05:30.562Z,99478.38
2022-08-12T02:08:27.728Z,99480.66
2022-08-12T02:11:22.703Z,99474.38
2022-08-12T02:14:01.178Z,99478.16
2022-08-12T02:16:36.400Z,99483.34
2022-08-12T02:19:28.579Z,99478.94
2022-08-12T02:22:00.297Z,99478.75
2022-08-12T02:24:32.237Z,99476.09
2022-08-12T02:27:00.595Z,99474.94
2022-08-12T02:29:27.999Z,99466.38
2022-08-12T02:31:55.298Z,99473.03
2022-08-12T02:34:23.086Z,99470.34
2022-08-12T02:36:54.589Z,99468.59
2022-08-12T02:39:25.283Z,99462.75
2022-08-12T02:41:54.311Z,99465.13
2022-08-12T02:44:23.631Z,99460.78
2022-08-12T02:46:55.110Z,99463.91
2022-08-12T02:49:44.561Z,99471.69
2022-08-12T02:52:14.464Z,99461.50
2022-08-12T02:54:45.746Z,99466.56
2022-08-12T02:57:14.124Z,99464.53
2022-08-12T02:59:41.831Z,99462.94
2022-08-12T03:02:13.114Z,99456.56
2022-08-12T03:04:56.695Z,99457.72
2022-08-12T03:07:55.804Z,99462.06
2022-08-12T03:10:23.955Z,99459.75
2022-08-12T03:13:07.471Z,99452.69
2022-08-12T03:15:35.904Z,99451.88
2022-08-12T03:18:24.542Z,99459.75
2022-08-12T03:20:53.901Z,99459.75
2022-08-12T03:23:29.815Z,99462.94
2022-08-12T03:25:59.417Z,99454.72
2022-08-12T03:28:44.756Z,99464.53
2022-08-12T03:31:11.590Z,99462.94
2022-08-12T03:33:40.740Z,99462.13
2022-08-12T03:36:08.980Z,99456.19
2022-08-12T03:38:40.473Z,99462.38
2022-08-12T03:41:40.695Z,99465.66
2022-08-12T03:44:56.444Z,99468.66
2022-08-12T03:47:49.866Z,99470.59
2022-08-12T03:50:36.786Z,99478.38
2022-08-12T03:53:24.586Z,99483.00
2022-08-12T03:56:10.684Z,99484.13
2022-08-12T03:58:56.959Z,99480.94
2022-08-12T04:01:26.241Z,99484.81
2022-08-12T04:03:53.690Z,99486.44
2022-08-12T04:06:35.048Z,99494.19
2022-08-12T04:09:14.631Z,99499.22
2022-08-12T04:12:01.260Z,99497.19
2022-08-12T04:14:28.034Z,99496.75
2022-08-12T04:16:57.088Z,99500.19
2022-08-12T04:19:25.199Z,99501.78
2022-08-12T04:22:02.098Z,99494.72
2022-08-12T04:24:36.752Z,99486.47
2022-08-12T04:27:11.022Z,99482.94
2022-08-12T04:30:29.477Z,99489.22
2022-08-12T04:32:27.509Z,99487.97
2022-08-12T04:34:55.270Z,99507.53
2022-08-12T04:37:23.258Z,99492.22
2022-08-12T04:39:50.519Z,99497.72
2022-08-12T04:42:17.149Z,99503.19
2022-08-12T04:44:44.444Z,99503.97
2022-08-12T04:47:12.835Z,99507.53
2022-08-12T04:49:40.812Z,99509.56
2022-08-12T04:52:07.506Z,99508.84
2022-08-12T04:54:34.450Z,99502.41
2022-08-12T04:57:04.139Z,99504.13
2022-08-12T04:59:46.978Z,99510.22
2022-08-12T05:02:20.379Z,99506.59
2022-08-12T05:04:51.285Z,99509.38
2022-08-12T05:07:17.947Z,99499.50
2022-08-12T05:10:02.013Z,99506.38
2022-08-12T05:12:37.301Z,99502.06
2022-08-12T05:15:18.926Z,99493.03
2022-08-12T05:17:53.235Z,99492.91
2022-08-12T05:20:20.693Z,99505.69
2022-08-12T05:22:47.274Z,99510.19
2022-08-12T05:25:18.415Z,99503.59
2022-08-12T05:27:57.996Z,99506.50
2022-08-12T05:30:27.073Z,99509.34
2022-08-12T05:32:55.731Z,99502.75
2022-08-12T05:35:27.059Z,99502.88
2022-08-12T05:38:11.999Z,99510.91
2022-08-12T05:40:38.644Z,99510.28
2022-08-12T05:43:06.548Z,99519.06
2022-08-12T05:45:33.254Z,99512.09
2022-08-12T05:48:00.068Z,99515.72
2022-08-12T05:50:26.686Z,99508.75
2022-08-12T05:52:53.938Z,99504.09
2022-08-12T05:55:20.916Z,99507.81
2022-08-12T05:57:55.757Z,99501.56
2022-08-12T06:00:26.203Z,99511.44
2022-08-12T06:03:01.291Z,99511.03
2022-08-12T06:05:30.276Z,99519.78
2022-08-12T06:08:01.657Z,99515.53
2022-08-12T06:10:32.545Z,99519.13
2022-08-12T06:13:06.860Z,99518.34
2022-08-12T06:15:38.086Z,99515.69
2022-08-12T06:18:13.954Z,99512.97
2022-08-12T06:20:43.632Z,99518.50
2022-08-12T06:23:11.881Z,99516.59
2022-08-12T06:25:38.981Z,99509.97
2022-08-12T06:28:15.594Z,99510.47
2022-08-12T06:30:42.396Z,99512.03
2022-08-12T06:33:22.435Z,99515.47
2022-08-12T06:35:51.841Z,99506.06
2022-08-12T06:38:25.210Z,99521.81
2022-08-12T06:41:18.528Z,99515.19
2022-08-12T06:44:05.696Z,99512.56
2022-08-12T06:46:33.480Z,99512.63
2022-08-12T06:49:00.133Z,99514.94
2022-08-12T06:51:29.624Z,99515.97
2022-08-12T06:53:57.469Z,99519.81
2022-08-12T06:56:34.999Z,99514.66
2022-08-12T06:59:13.884Z,99511.41
2022-08-12T07:01:40.850Z,99518.97
2022-08-12T07:04:35.899Z,99520.25
2022-08-12T07:07:05.567Z,99519.59
2022-08-12T07:10:01.226Z,99520.84
2022-08-12T07:12:20.019Z,99517.25
2022-08-12T07:14:51.789Z,99517.06
2022-08-12T07:17:18.429Z,99511.41
2022-08-12T07:19:46.871Z,99513.44
2022-08-12T07:22:16.165Z,99511.25
2022-08-12T07:24:43.020Z,99514.06
2022-08-12T07:27:09.723Z,99515.66
2022-08-12T07:29:57.994Z,99506.25
2022-08-12T07:32:25.639Z,99511.03
2022-08-12T07:34:56.417Z,99512.97
2022-08-12T07:37:23.588Z,99508.66
2022-08-12T07:39:59.502Z,99501.56
2022-08-12T07:42:27.177Z,99511.53
2022-08-12T07:44:53.927Z,99504.06
2022-08-12T07:47:20.561Z,99512.03
2022-08-12T07:50:04.775Z,99513.66
2022-08-12T07:52:34.927Z,99509.69
2022-08-12T07:55:02.135Z,99513.34
2022-08-12T07:57:28.800Z,99517.69
2022-08-12T07:59:55.870Z,99509.78
2022-08-12T08:02:26.977Z,99522.09
2022-08-12T08:04:56.953Z,99515.44
2022-08-12T08:07:25.950Z,99513.91
2022-08-12T08:09:58.428Z,99509.56
2022-08-12T08:12:45.613Z,99513.50
2022-08-12T08:15:12.447Z,99508.38
2022-08-12T08:17:39.105Z,99506.88
2022-08-12T08:20:08.719Z,99499.00
2022-08-12T08:22:41.455Z,99503.75
2022-08-12T08:25:34.618Z,99504.56
2022-08-12T08:27:59.124Z,99507.75
2022-08-12T08:30:26.736Z,99506.97
2022-08-12T08:32:53.420Z,99505.44
2022-08-12T08:35:22.485Z,99505.41
2022-08-12T08:37:52.160Z,99503.06
2022-08-12T08:40:38.116Z,99504.63
2022-08-12T08:43:05.672Z,99512.13
2022-08-12T08:45:32.235Z,99514.09
2022-08-12T08:48:00.460Z,99510.94
2022-08-12T08:50:27.522Z,99514.09
2022-08-12T08:52:54.128Z,99491.94
2022-08-12T08:55:27.401Z,99496.25
2022-08-12T08:58:00.131Z,99491.50
2022-08-12T09:00:27.030Z,99489.91
2022-08-12T09:02:58.769Z,99488.66
2022-08-12T09:05:27.281Z,99483.50
2022-08-12T09:08:09.196Z,99478.31
2022-08-12T09:10:45.273Z,99477.84
2022-08-12T09:13:29.317Z,99477.41
2022-08-12T09:16:20.322Z,99473.38
2022-08-12T09:18:48.366Z,99482.03
2022-08-12T09:21:19.399Z,99472.88
2022-08-12T09:26:45.919Z,99462.69
2022-08-12T09:29:15.384Z,99466.44
2022-08-12T09:32:07.060Z,99473.06
2022-08-12T09:34:33.840Z,99465.44
2022-08-12T09:37:19.504Z,99464.16
2022-08-12T09:40:03.556Z,99462.56
2022-08-12T09:46:11.036Z,99447.00
2022-08-12T09:48:34.856Z,99439.63
2022-08-12T09:51:04.556Z,99439.84
2022-08-12T09:53:38.372Z,99438.97
2022-08-12T09:56:59.110Z,99430.63
2022-08-12T09:58:58.613Z,99426.56
2022-08-12T10:01:34.700Z,99424.47
2022-08-12T10:04:05.736Z,99425.59
2022-08-12T10:06:36.678Z,99427.84
2022-08-12T10:09:15.326Z,99414.72
2022-08-12T10:12:12.179Z,99424.50
2022-08-12T10:14:50.300Z,99411.69
2022-08-12T10:17:23.028Z,99398.47
2022-08-12T10:19:52.576Z,99393.69
2022-08-12T10:22:36.751Z,99409.19
2022-08-12T10:26:35.086Z,99397.22
2022-08-12T10:28:31.531Z,99397.09
2022-08-12T10:30:59.160Z,99400.09
2022-08-12T10:33:31.055Z,99394.31
2022-08-12T10:35:59.823Z,99405.25
2022-08-12T10:38:38.738Z,99393.69
2022-08-12T10:41:58.029Z,99393.28
2022-08-12T10:44:17.345Z,99384.59
2022-08-12T10:46:49.378Z,99362.22
2022-08-12T10:50:03.519Z,99371.00
2022-08-12T10:52:34.335Z,99383.56
2022-08-12T10:54:55.952Z,99371.75
2022-08-12T10:58:15.041Z,99365.03
2022-08-12T11:00:34.780Z,99371.75
2022-08-12T11:04:34.281Z,99367.38
2022-08-12T11:07:07.640Z,99364.47
2022-08-12T11:08:42.327Z,99376.63
2022-08-12T11:11:13.518Z,99365.31
2022-08-12T11:13:46.712Z,99366.03
2022-08-12T11:16:21.850Z,99359.53
2022-08-12T11:18:55.437Z,99348.22
2022-08-12T11:21:47.330Z,99354.31
2022-08-12T11:24:30.190Z,99345.44
2022-08-12T11:26:58.576Z,99340.72
2022-08-12T11:29:27.767Z,99342.31
2022-08-12T11:32:14.291Z,99344.94
2022-08-12T11:34:52.842Z,99338.22
2022-08-12T11:37:25.901Z,99345.91
2022-08-12T11:42:35.679Z,99326.59
2022-08-12T11:45:03.813Z,99335.50
2022-08-12T11:47:31.807Z,99327.28
2022-08-12T11:49:58.400Z,99333.75
2022-08-12T11:52:55.290Z,99322.41
2022-08-12T11:55:14.921Z,99319.28
2022-08-12T11:58:14.307Z,99312.13
2022-08-12T12:03:26.391Z,99318.56
2022-08-12T12:06:15.436Z,99313.69
2022-08-12T12:08:50.580Z,99309.31
2022-08-12T12:11:19.786Z,99309.53
2022-08-12T12:14:07.577Z,99291.53
2022-08-12T12:16:38.269Z,99300.53
2022-08-12T12:19:07.062Z,99289.50
2022-08-12T12:21:48.585Z,99285.16
2022-08-12T12:24:21.166Z,99279.56
2022-08-12T12:27:00.545Z,99293.28
2022-08-12T12:30:18.915Z,99284.09
2022-08-12T12:32:16.348Z,99293.00
2022-08-12T12:35:14.333Z,99286.34
2022-08-12T12:38:03.843Z,99278.09
2022-08-12T12:40:16.487Z,99279.78
2022-08-12T12:42:55.240Z,99273.53
2022-08-12T12:45:26.218Z,99267.28
2022-08-12T12:47:58.989Z,99266.06
2022-08-12T12:50:35.165Z,99266.28
2022-08-12T12:53:03.892Z,99258.22
2022-08-12T12:55:35.836Z,99254.19
2022-08-12T12:58:04.894Z,99259.09
2022-08-12T13:00:32.856Z,99253.06
2022-08-12T13:03:00.200Z,99257.75
2022-08-12T13:05:29.664Z,99256.84
2022-08-12T13:08:38.307Z,99253.03
2022-08-12T13:11:06.482Z,99257.63
2022-08-12T13:14:09.204Z,99250.31
2022-08-12T13:16:23.495Z,99237.56
2022-08-12T13:18:52.783Z,99242.25
2022-08-12T13:21:32.735Z,99246.63
2022-08-12T13:24:09.637Z,99243.41
2022-08-12T13:26:37.913Z,99239.88
2022-08-12T13:29:04.605Z,99224.22
2022-08-12T13:31:31.602Z,99223.97
2022-08-12T13:34:34.259Z,99234.81
2022-08-12T13:36:50.966Z,99237.44
2022-08-12T13:39:21.357Z,99238.69
2022-08-12T13:41:49.592Z,99235.63
2022-08-12T13:44:16.540Z,99238.56
2022-08-12T13:46:43.537Z,99235.16
2022-08-12T13:49:55.186Z,99231.19
2022-08-12T13:52:11.434Z,99221.88
2022-08-12T13:54:37.980Z,99226.09
2022-08-12T13:57:04.579Z,99221.28
2022-08-12T13:59:48.120Z,99229.66
2022-08-12T14:02:15.892Z,99217.91
2022-08-12T14:04:45.505Z,99223.63
2022-08-12T14:07:23.496Z,99220.25
2022-08-12T14:10:11.748Z,99214.81
2022-08-12T14:12:40.783Z,99215.13
2022-08-12T14:15:21.511Z,99212.22
2022-08-12T14:18:21.461Z,99211.09
2022-08-12T14:20:50.294Z,99205.91
2022-08-12T14:24:05.624Z,99211.97
2022-08-12T14:26:12.106Z,99197.06
2022-08-12T14:28:45.252Z,99187.91
2022-08-12T14:31:31.802Z,99182.38
2022-08-12T14:33:59.398Z,99185.41
2022-08-12T14:36:26.801Z,99180.22
2022-08-12T14:38:55.088Z,99175.91
2022-08-12T14:41:37.128Z,99186.56
2022-08-12T14:44:58.878Z,99172.00
2022-08-12T14:46:59.221Z,99169.94
2022-08-12T14:50:41.537Z,99178.59
2022-08-12T14:53:03.385Z,99176.81
2022-08-12T14:57:57.992Z,99168.19
2022-08-12T15:00:52.568Z,99173.47
2022-08-12T15:03:52.274Z,99162.19
2022-08-12T15:06:43.780Z,99164.72
2022-08-12T15:09:09.151Z,99150.13
2022-08-12T15:11:55.725Z,99156.50
2022-08-12T15:14:27.667Z,99154.53
2022-08-12T15:16:57.317Z,99159.06
2022-08-12T15:20:27.912Z,99149.00
2022-08-12T15:22:36.935Z,99140.47
2022-08-12T15:25:07.586Z,99145.44
2022-08-12T15:28:04.156Z,99144.97
2022-08-12T15:30:31.266Z,99148.81
2022-08-12T15:32:58.963Z,99142.75
2022-08-12T15:35:31.415Z,99131.94
2022-08-12T15:38:19.705Z,99132.03
2022-08-12T15:40:49.531Z,99128.41
2022-08-12T15:43:35.286Z,99132.06
2022-08-12T15:46:06.335Z,99123.63
2022-08-12T15:48:33.135Z,99134.53
2022-08-12T15:51:02.985Z,99128.59
2022-08-12T15:53:53.451Z,99139.56
2022-08-12T15:56:29.592Z,99140.38
2022-08-12T15:59:00.197Z,99142.50
2022-08-12T16:01:35.074Z,99131.94
2022-08-12T16:04:02.664Z,99120.63
2022-08-12T16:07:00.756Z,99125.75
2022-08-12T16:09:21.600Z,99122.59
2022-08-12T16:11:59.218Z,99132.84
2022-08-12T16:14:28.287Z,99139.34
2022-08-12T16:16:55.544Z,99130.94
2022-08-12T16:20:03.122Z,99134.25
2022-08-12T16:22:11.317Z,99122.72
2022-08-12T16:24:43.563Z,99127.22
2022-08-12T16:27:10.961Z,99130.78
2022-08-12T16:29:53.183Z,99129.38
2022-08-12T16:32:23.898Z,99121.72
2022-08-12T16:34:55.752Z,99134.59
2022-08-12T16:38:05.036Z,99132.13
2022-08-12T16:40:10.968Z,99123.13
2022-08-12T16:42:42.251Z,99132.84
2022-08-12T16:45:23.096Z,99125.94
2022-08-12T16:48:00.723Z,99127.38
2022-08-12T16:50:31.270Z,99132.34
2022-08-12T16:52:59.763Z,99133.66
2022-08-12T16:55:41.918Z,99130.31
2022-08-12T16:58:18.459Z,99135.50
2022-08-12T17:00:55.357Z,99129.66
2022-08-12T17:03:29.191Z,99142.69
2022-08-12T17:05:57.263Z,99137.75
2022-08-12T17:08:29.170Z,99135.28
2022-08-12T17:10:56.336Z,99140.16
2022-08-12T17:13:26.169Z,99140.19
2022-08-12T17:16:05.642Z,99146.47
2022-08-12T17:18:43.373Z,99152.53
2022-08-12T17:21:19.711Z,99158.66
2022-08-12T17:23:52.986Z,99162.63
2022-08-12T17:26:24.745Z,99150.50
2022-08-12T17:28:56.703Z,99160.25
2022-08-12T17:32:00.331Z,99158.94
2022-08-12T17:34:30.233Z,99162.31
2022-08-12T17:37:04.863Z,99156.41
2022-08-12T17:40:11.984Z,99163.00
2022-08-12T17:42:34.424Z,99168.63
2022-08-12T17:45:01.814Z,99164.25
2022-08-12T17:47:43.857Z,99174.44
2022-08-12T17:50:12.918Z,99169.47
2022-08-12T17:52:40.304Z,99164.09
2022-08-12T17:55:22.902Z,99173.50
2022-08-12T17:57:57.242Z,99168.25
2022-08-12T18:00:28.425Z,99171.69
2022-08-12T18:02:59.806Z,99174.56
2022-08-12T18:05:29.493Z,99175.03
2022-08-12T18:08:15.970Z,99175.16
2022-08-12T18:11:11.640Z,99174.63
2022-08-12T18:13:42.561Z,99179.59
2022-08-12T18:16:13.236Z,99180.56
2022-08-12T18:18:41.867Z,99192.63
2022-08-12T18:21:08.696Z,99182.81
2022-08-12T18:23:50.553Z,99190.06
2022-08-12T18:26:23.435Z,99193.47
2022-08-12T18:28:54.681Z,99186.44
2022-08-12T18:31:44.630Z,99196.16
2022-08-12T18:34:18.471Z,99199.13
2022-08-12T18:36:50.130Z,99200.00
2022-08-12T18:39:19.680Z,99204.09
2022-08-12T18:41:47.283Z,99197.06
2022-08-12T18:44:14.088Z,99191.25
2022-08-12T18:46:47.238Z,99198.97
2022-08-12T18:49:25.077Z,99198.34
2022-08-12T18:52:02.235Z,99206.81
2022-08-12T18:54:36.056Z,99202.97
2022-08-12T18:57:16.701Z,99206.22
2022-08-12T19:00:00.868Z,99201.22
2022-08-12T19:02:32.049Z,99199.75
2022-08-12T19:04:59.099Z,99207.00
2022-08-12T19:07:29.748Z,99213.44
2022-08-12T19:10:13.908Z,99208.81
2022-08-12T19:12:59.357Z,99212.81
2022-08-12T19:15:27.273Z,99209.38
2022-08-12T19:18:02.729Z,99218.22
2022-08-12T19:20:30.630Z,99224.66
2022-08-12T19:22:59.785Z,99226.66
2022-08-12T19:26:01.710Z,99223.97
2022-08-12T19:28:29.786Z,99221.28
2022-08-12T19:31:56.832Z,99223.72
2022-08-12T19:35:24.156Z,99226.22
2022-08-12T19:37:38.600Z,99221.56
2022-08-12T19:40:31.560Z,99230.00
2022-08-12T19:43:02.357Z,99228.06
2022-08-12T19:45:50.375Z,99234.06
2022-08-12T19:48:20.427Z,99237.69
2022-08-12T19:50:50.506Z,99231.41
2022-08-12T19:53:22.777Z,99232.28
2022-08-12T19:55:53.157Z,99235.88
2022-08-12T19:58:21.525Z,99245.03
2022-08-12T20:00:52.835Z,99253.31
2022-08-12T20:03:39.831Z,99253.75
2022-08-12T20:06:21.829Z,99253.78
2022-08-12T20:08:56.582Z,99262.50
2022-08-12T20:12:12.969Z,99260.94
2022-08-12T20:14:19.197Z,99261.75
2022-08-12T20:16:52.103Z,99253.81
2022-08-12T20:19:21.344Z,99264.91
2022-08-12T20:21:50.651Z,99269.22
2022-08-12T20:24:19.392Z,99255.38
2022-08-12T20:26:46.816Z,99259.69
2022-08-12T20:29:15.084Z,99271.91
2022-08-12T20:31:43.926Z,99261.63
2022-08-12T20:34:12.330Z,99262.03
2022-08-12T20:36:44.796Z,99269.50
2022-08-12T20:39:34.340Z,99267.13
2022-08-12T20:42:07.343Z,99268.25
2022-08-12T20:44:40.417Z,99268.22
2022-08-12T20:47:18.281Z,99272.53
2022-08-12T20:49:54.860Z,99269.72
2022-08-12T20:52:22.565Z,99271.28
2022-08-12T20:54:51.923Z,99270.09
2022-08-12T20:57:20.063Z,99272.03
2022-08-12T20:59:49.553Z,99272.41
2022-08-12T21:02:24.457Z,99271.59
2022-08-12T21:05:16.603Z,99275.50
2022-08-12T21:07:52.314Z,99270.34
2022-08-12T21:10:21.028Z,99266.72
2022-08-12T21:12:48.418Z,99261.19
2022-08-12T21:15:30.314Z,99261.91
2022-08-12T21:18:00.898Z,99266.53
2022-08-12T21:20:37.853Z,99260.19
2022-08-12T21:23:06.385Z,99255.41
2022-08-12T21:25:35.979Z,99267.97
2022-08-12T21:28:10.777Z,99265.59
2022-08-12T21:31:10.836Z,99262.38
2022-08-12T21:33:31.143Z,99265.88
2022-08-12T21:35:59.114Z,99263.06
2022-08-12T21:38:34.239Z,99266.94
2022-08-12T21:41:06.839Z,99264.50
2022-08-12T21:43:38.955Z,99272.75
2022-08-12T21:46:14.997Z,99268.38
2022-08-12T21:49:04.566Z,99267.16
2022-08-12T21:51:35.371Z,99272.97
2022-08-12T21:54:22.558Z,99271.31
2022-08-12T21:56:53.607Z,99277.56
2022-08-12T21:59:21.766Z,99285.38
2022-08-12T22:01:49.786Z,99285.34
2022-08-12T22:04:36.313Z,99281.38
2022-08-12T22:07:03.680Z,99285.25
2022-08-12T22:09:43.060Z,99290.69
2022-08-12T22:12:29.593Z,99279.59
2022-08-12T22:14:56.517Z,99282.69
2022-08-12T22:17:33.744Z,99282.25
2022-08-12T22:20:21.899Z,99284.94
2022-08-12T22:22:56.434Z,99293.53
2022-08-12T22:25:27.882Z,99287.91
2022-08-12T22:28:13.438Z,99283.13
2022-08-12T22:30:59.326Z,99290.13
2022-08-12T22:33:25.936Z,99280.59
2022-08-12T22:35:59.427Z,99286.06
2022-08-12T22:38:29.696Z,99292.31
2022-08-12T22:41:01.742Z,99282.84
2022-08-12T22:44:00.710Z,99282.81
2022-08-12T22:46:52.488Z,99289.81
2022-08-12T22:49:20.364Z,99280.72
2022-08-12T22:52:00.295Z,99279.50
2022-08-12T22:54:36.668Z,99288.91
2022-08-12T22:57:12.087Z,99292.38
2022-08-12T22:59:55.866Z,99285.59
2022-08-12T23:02:30.706Z,99291.00
2022-08-12T23:04:57.947Z,99285.41
2022-08-12T23:07:24.713Z,99280.66
2022-08-12T23:09:51.415Z,99282.94
2022-08-12T23:12:46.591Z,99287.66
2022-08-12T23:15:14.195Z,99285.19
2022-08-12T23:17:41.793Z,99285.13
2022-08-12T23:20:11.435Z,99285.06
2022-08-12T23:22:38.668Z,99287.78
2022-08-12T23:25:07.780Z,99286.53
2022-08-12T23:28:04.367Z,99280.97
2022-08-12T23:30:32.117Z,99276.97
2022-08-12T23:33:20.093Z,99287.09
2022-08-12T23:36:02.496Z,99279.91
2022-08-12T23:38:32.470Z,99278.59
2022-08-12T23:41:05.952Z,99278.19
2022-08-12T23:43:39.162Z,99277.41
2022-08-12T23:46:08.731Z,99273.41
2022-08-12T23:48:35.763Z,99274.59
2022-08-12T23:51:22.399Z,99270.97
2022-08-12T23:54:04.113Z,99268.13
2022-08-12T23:56:32.998Z,99273.63
2022-08-12T23:59:05.616Z,99276.28
